Time;durP1;ratioP1;P1;durP2;ratioP2;P2;SDS_P1;SDS_P2;PMS_P1;PMS_P2;Temp;Humidity;BMP_temperature;BMP_pressure;BME280_temperature;BME280_humidity;BME280_pressure;Samples;Min_cycle;Max_cycle;Signal;HPM_P1;HPM_P2
2021/06/05 00:02:27;;;;;;;24.17;14.02;;;;;;;;;;4986786;28;20026;-65
2021/06/05 00:04:56;;;;;;;25.63;15.68;;;;;;;;;;4972304;28;20031;-63
2021/06/05 00:07:22;;;;;;;27.33;16.92;;;;;;;;;;4989966;28;20035;-64
2021/06/05 00:09:48;;;;;;;30.48;17.73;;;;;;;;;;4990181;28;20091;-64
2021/06/05 00:12:16;;;;;;;31.38;17.65;;;;;;;;;;4990492;28;20031;-64
2021/06/05 00:14:42;;;;;;;28.63;17.38;;;;;;;;;;4990064;28;20485;-64
2021/06/05 00:17:08;;;;;;;30.55;17.75;;;;;;;;;;4982457;28;20026;-64
2021/06/05 00:19:34;;;;;;;29.15;18.27;;;;;;;;;;4988911;28;20037;-64
2021/06/05 00:22:00;;;;;;;28.60;18.27;;;;;;;;;;4995903;28;20114;-64
2021/06/05 00:24:26;;;;;;;28.05;18.08;;;;;;;;;;4999850;28;20054;-64
2021/06/05 00:26:53;;;;;;;31.08;20.67;;;;;;;;;;4977203;28;20034;-65
2021/06/05 00:29:19;;;;;;;33.88;21.38;;;;;;;;;;4987793;28;20061;-64
2021/06/05 00:31:45;;;;;;;36.30;22.17;;;;;;;;;;4991768;28;20042;-64
2021/06/05 00:34:11;;;;;;;32.80;21.75;;;;;;;;;;4988278;28;20026;-64
2021/06/05 00:36:38;;;;;;;37.28;23.33;;;;;;;;;;4990578;28;20019;-64
2021/06/05 00:39:04;;;;;;;40.88;24.30;;;;;;;;;;4990175;28;20031;-64
2021/06/05 00:41:30;;;;;;;39.80;23.00;;;;;;;;;;4990201;28;20505;-64
2021/06/05 00:43:58;;;;;;;38.67;22.73;;;;;;;;;;4990746;28;20026;-63
2021/06/05 00:46:27;;;;;;;34.40;19.38;;;;;;;;;;4975858;28;20031;-64
2021/06/05 00:48:53;;;;;;;28.17;18.05;;;;;;;;;;4987548;28;20019;-64
2021/06/05 00:51:24;;;;;;;24.52;16.00;;;;;;;;;;4994363;28;20031;-64
2021/06/05 00:53:50;;;;;;;21.98;15.60;;;;;;;;;;4990118;28;20019;-64
2021/06/05 00:56:16;;;;;;;25.67;15.73;;;;;;;;;;4989314;28;20032;-64
2021/06/05 00:58:42;;;;;;;19.63;13.35;;;;;;;;;;4988877;28;21750;-64
2021/06/05 01:01:13;;;;;;;24.80;14.70;;;;;;;;;;4988486;28;20036;-64
2021/06/05 01:03:40;;;;;;;27.75;15.80;;;;;;;;;;4986181;28;20409;-64
2021/06/05 01:06:09;;;;;;;27.45;15.38;;;;;;;;;;4989544;28;20034;-64
2021/06/05 01:08:45;;;;;;;26.65;15.40;;;;;;;;;;4989118;28;20034;-64
2021/06/05 01:11:11;;;;;;;27.60;17.55;;;;;;;;;;4988559;28;20030;-64
2021/06/05 01:13:41;;;;;;;29.17;17.55;;;;;;;;;;4988175;28;20038;-64
2021/06/05 01:16:10;;;;;;;25.15;17.45;;;;;;;;;;4989570;28;20031;-64
2021/06/05 01:18:42;;;;;;;26.85;18.23;;;;;;;;;;4986322;28;20039;-63
2021/06/05 01:21:11;;;;;;;33.15;19.92;;;;;;;;;;4994685;28;20030;-64
2021/06/05 01:23:43;;;;;;;35.17;21.27;;;;;;;;;;4981433;28;20042;-64
2021/06/05 01:26:18;;;;;;;31.95;20.42;;;;;;;;;;4989295;28;20053;-64
2021/06/05 01:28:58;;;;;;;30.95;23.08;;;;;;;;;;4989825;28;20723;-64
2021/06/05 01:31:31;;;;;;;34.35;23.60;;;;;;;;;;4985730;28;20073;-63
2021/06/05 01:33:57;;;;;;;35.72;23.98;;;;;;;;;;4984624;28;20049;-64
2021/06/05 01:36:24;;;;;;;28.55;20.77;;;;;;;;;;4985683;28;20015;-64
2021/06/05 01:38:51;;;;;;;30.95;20.52;;;;;;;;;;4988994;28;20027;-64
2021/06/05 01:41:18;;;;;;;32.00;20.70;;;;;;;;;;4978820;28;20042;-64
2021/06/05 01:43:46;;;;;;;28.73;19.02;;;;;;;;;;4985892;28;20065;-64
2021/06/05 01:46:13;;;;;;;23.85;17.25;;;;;;;;;;4978178;28;20071;-63
2021/06/05 01:48:39;;;;;;;29.98;16.55;;;;;;;;;;4987582;28;20038;-64
2021/06/05 01:51:09;;;;;;;31.83;16.83;;;;;;;;;;4989166;28;20030;-64
2021/06/05 01:53:37;;;;;;;27.05;16.85;;;;;;;;;;4987785;28;20018;-64
2021/06/05 01:56:13;;;;;;;34.40;20.15;;;;;;;;;;4984457;28;20509;-64
2021/06/05 01:58:40;;;;;;;27.80;20.42;;;;;;;;;;4983958;28;20116;-63
2021/06/05 02:01:07;;;;;;;30.02;21.33;;;;;;;;;;4986774;28;20030;-64
2021/06/05 02:03:33;;;;;;;25.63;18.58;;;;;;;;;;4996427;28;20045;-64
2021/06/05 02:05:59;;;;;;;27.05;18.95;;;;;;;;;;4974674;28;20031;-64
2021/06/05 02:08:26;;;;;;;36.53;19.25;;;;;;;;;;4981432;28;20408;-64
2021/06/05 02:10:55;;;;;;;31.73;20.17;;;;;;;;;;4984121;28;20081;-64
2021/06/05 02:13:23;;;;;;;31.75;21.15;;;;;;;;;;4986260;28;20125;-64
2021/06/05 02:15:55;;;;;;;25.70;19.13;;;;;;;;;;4983373;28;20508;-64
2021/06/05 02:18:26;;;;;;;24.40;17.48;;;;;;;;;;4996182;28;20026;-64
2021/06/05 02:20:54;;;;;;;23.70;15.48;;;;;;;;;;4985602;28;20033;-64
2021/06/05 02:23:24;;;;;;;30.10;13.77;;;;;;;;;;4984126;28;20023;-64
2021/06/05 02:25:50;;;;;;;21.30;13.13;;;;;;;;;;4986438;28;20026;-64
2021/06/05 02:28:17;;;;;;;20.30;13.27;;;;;;;;;;4987571;28;20105;-64
2021/06/05 02:30:43;;;;;;;15.60;11.82;;;;;;;;;;4991833;28;20035;-64
2021/06/05 02:33:10;;;;;;;22.05;14.10;;;;;;;;;;4983148;28;20083;-64
2021/06/05 02:35:39;;;;;;;23.55;15.18;;;;;;;;;;4979746;28;20513;-64
2021/06/05 02:38:05;;;;;;;31.70;17.48;;;;;;;;;;4978585;28;20038;-64
2021/06/05 02:40:33;;;;;;;27.77;19.15;;;;;;;;;;4988138;28;20018;-64
2021/06/05 02:43:01;;;;;;;26.70;17.55;;;;;;;;;;4986748;28;20034;-64
2021/06/05 02:45:29;;;;;;;25.15;17.70;;;;;;;;;;4988279;28;20488;-63
2021/06/05 02:47:57;;;;;;;30.30;18.90;;;;;;;;;;4986979;28;20103;-64
2021/06/05 02:50:24;;;;;;;27.25;19.65;;;;;;;;;;4988631;28;20038;-64
2021/06/05 02:52:51;;;;;;;25.73;19.33;;;;;;;;;;4989752;28;20030;-64
2021/06/05 02:55:19;;;;;;;22.65;18.58;;;;;;;;;;4989202;28;20046;-64
2021/06/05 02:57:45;;;;;;;25.02;19.75;;;;;;;;;;4991717;28;20554;-64
2021/06/05 03:00:13;;;;;;;25.10;19.35;;;;;;;;;;4989785;28;20035;-64
2021/06/05 03:02:40;;;;;;;27.92;17.83;;;;;;;;;;4989535;28;20121;-64
2021/06/05 03:05:07;;;;;;;25.60;18.92;;;;;;;;;;4989530;28;20022;-63
2021/06/05 03:07:33;;;;;;;29.70;20.33;;;;;;;;;;4986778;28;20031;-64
2021/06/05 03:09:59;;;;;;;30.42;19.45;;;;;;;;;;4991395;28;20033;-64
2021/06/05 03:12:26;;;;;;;25.95;18.33;;;;;;;;;;4989201;28;20075;-64
2021/06/05 03:14:52;;;;;;;23.17;17.65;;;;;;;;;;4991339;28;20030;-65
2021/06/05 03:17:18;;;;;;;27.98;19.40;;;;;;;;;;4990427;28;20027;-64
2021/06/05 03:19:45;;;;;;;28.35;19.60;;;;;;;;;;4990995;28;20076;-64
2021/06/05 03:22:11;;;;;;;30.08;20.42;;;;;;;;;;4990052;28;20060;-64
2021/06/05 03:24:37;;;;;;;30.27;22.75;;;;;;;;;;4988522;28;20030;-65
2021/06/05 03:27:03;;;;;;;37.20;25.48;;;;;;;;;;4994455;28;20035;-64
2021/06/05 03:29:29;;;;;;;37.60;25.55;;;;;;;;;;4990378;28;20109;-64
2021/06/05 03:31:56;;;;;;;37.42;26.90;;;;;;;;;;4982619;28;20066;-65
2021/06/05 03:34:22;;;;;;;35.15;25.77;;;;;;;;;;4989276;28;20031;-64
2021/06/05 03:36:48;;;;;;;35.25;24.73;;;;;;;;;;4990649;28;20027;-64
2021/06/05 03:39:14;;;;;;;37.53;24.63;;;;;;;;;;4989951;28;20034;-64
2021/06/05 03:41:43;;;;;;;35.22;25.67;;;;;;;;;;4990374;28;20087;-65
2021/06/05 03:44:09;;;;;;;35.08;23.25;;;;;;;;;;4988342;28;20121;-64
2021/06/05 03:46:35;;;;;;;31.08;22.58;;;;;;;;;;4990105;28;20054;-64
2021/06/05 03:49:02;;;;;;;29.00;22.02;;;;;;;;;;4986401;28;20091;-64
2021/06/05 03:51:28;;;;;;;33.85;22.23;;;;;;;;;;4990672;28;20034;-64
2021/06/05 03:53:54;;;;;;;31.40;22.48;;;;;;;;;;4988615;28;20015;-64
2021/06/05 03:56:20;;;;;;;30.83;22.35;;;;;;;;;;4990354;28;20034;-65
2021/06/05 03:58:46;;;;;;;33.05;23.25;;;;;;;;;;4990428;28;20046;-64
2021/06/05 04:01:14;;;;;;;27.80;20.52;;;;;;;;;;4990162;28;20037;-64
2021/06/05 04:03:40;;;;;;;26.88;18.98;;;;;;;;;;4986374;28;20038;-64
2021/06/05 04:06:06;;;;;;;27.23;19.73;;;;;;;;;;4988620;28;20023;-65
2021/06/05 04:08:32;;;;;;;31.73;21.52;;;;;;;;;;4990624;28;20035;-65
2021/06/05 04:10:58;;;;;;;33.42;23.75;;;;;;;;;;4989870;28;20076;-64
2021/06/05 04:13:24;;;;;;;28.65;21.50;;;;;;;;;;4986795;28;20022;-63
2021/06/05 04:15:50;;;;;;;31.13;19.85;;;;;;;;;;4993492;28;20041;-64
2021/06/05 04:18:29;;;;;;;27.55;20.13;;;;;;;;;;4999299;28;20037;-64
2021/06/05 04:20:55;;;;;;;30.15;20.83;;;;;;;;;;4985113;28;20110;-65
2021/06/05 04:23:21;;;;;;;30.55;21.58;;;;;;;;;;4983936;28;20022;-64
2021/06/05 04:25:47;;;;;;;31.38;22.13;;;;;;;;;;4989585;28;20111;-64
2021/06/05 04:28:14;;;;;;;33.90;23.05;;;;;;;;;;4993710;28;20515;-64
2021/06/05 04:30:41;;;;;;;29.92;23.25;;;;;;;;;;4990095;28;20027;-64
2021/06/05 04:33:09;;;;;;;32.92;23.17;;;;;;;;;;4983490;28;20031;-64
2021/06/05 04:35:35;;;;;;;33.17;24.55;;;;;;;;;;4988015;28;20613;-64
2021/06/05 04:38:01;;;;;;;36.42;22.65;;;;;;;;;;4989818;28;20036;-64
2021/06/05 04:40:28;;;;;;;29.58;23.92;;;;;;;;;;4989682;28;20447;-65
2021/06/05 04:42:54;;;;;;;33.97;24.90;;;;;;;;;;4984482;28;20030;-65
2021/06/05 04:45:21;;;;;;;28.98;21.50;;;;;;;;;;4989969;28;20239;-64
2021/06/05 04:47:47;;;;;;;26.73;20.25;;;;;;;;;;4985935;28;20165;-64
2021/06/05 04:50:15;;;;;;;29.13;22.52;;;;;;;;;;4989617;28;20046;-64
2021/06/05 04:52:41;;;;;;;27.27;19.65;;;;;;;;;;4987721;28;20031;-64
2021/06/05 04:55:07;;;;;;;32.95;23.67;;;;;;;;;;4987825;28;20022;-64
2021/06/05 04:57:34;;;;;;;29.48;22.60;;;;;;;;;;4995804;28;20029;-64
2021/06/05 05:00:00;;;;;;;26.25;19.63;;;;;;;;;;5001472;28;20104;-64
2021/06/05 05:02:26;;;;;;;30.65;20.63;;;;;;;;;;4987823;28;20069;-64
2021/06/05 05:04:52;;;;;;;30.45;21.33;;;;;;;;;;4988847;28;20030;-65
2021/06/05 05:07:18;;;;;;;27.08;19.92;;;;;;;;;;4989462;28;20042;-64
2021/06/05 05:09:45;;;;;;;27.35;19.73;;;;;;;;;;4988235;28;20104;-64
2021/06/05 05:12:12;;;;;;;27.30;20.75;;;;;;;;;;4986805;28;20065;-64
2021/06/05 05:14:38;;;;;;;27.20;20.42;;;;;;;;;;4983941;28;20074;-65
2021/06/05 05:17:04;;;;;;;31.33;19.15;;;;;;;;;;4976048;28;20023;-65
2021/06/05 05:19:30;;;;;;;23.13;18.90;;;;;;;;;;5003583;28;20394;-64
2021/06/05 05:21:57;;;;;;;27.85;19.83;;;;;;;;;;4996341;28;20030;-65
2021/06/05 05:24:23;;;;;;;30.50;20.63;;;;;;;;;;4982387;28;20061;-65
2021/06/05 05:26:49;;;;;;;35.10;21.17;;;;;;;;;;4983821;28;20030;-63
2021/06/05 05:29:15;;;;;;;29.38;23.17;;;;;;;;;;4988426;28;20022;-64
2021/06/05 05:31:41;;;;;;;26.40;22.60;;;;;;;;;;4985667;28;20128;-64
2021/06/05 05:34:07;;;;;;;32.22;23.13;;;;;;;;;;4992704;28;20064;-64
2021/06/05 05:36:35;;;;;;;27.35;21.30;;;;;;;;;;4986634;28;20015;-64
2021/06/05 05:39:02;;;;;;;26.88;20.35;;;;;;;;;;4986878;28;20557;-64
2021/06/05 05:41:28;;;;;;;30.67;19.08;;;;;;;;;;4988435;28;20022;-64
2021/06/05 05:43:55;;;;;;;23.23;17.70;;;;;;;;;;4986779;28;20034;-64
2021/06/05 05:46:21;;;;;;;24.85;16.73;;;;;;;;;;4987331;28;20057;-64
2021/06/05 05:48:48;;;;;;;30.08;21.40;;;;;;;;;;4981680;28;20031;-63
2021/06/05 05:51:15;;;;;;;26.17;19.17;;;;;;;;;;4988349;28;20034;-64
2021/06/05 05:53:41;;;;;;;26.73;18.80;;;;;;;;;;4988997;28;20037;-64
2021/06/05 05:56:08;;;;;;;28.25;19.98;;;;;;;;;;4987381;28;20038;-64
2021/06/05 05:58:38;;;;;;;29.05;19.90;;;;;;;;;;4990637;28;20054;-64
2021/06/05 06:01:07;;;;;;;28.38;21.02;;;;;;;;;;4979755;28;20083;-64
2021/06/05 06:03:33;;;;;;;28.85;20.80;;;;;;;;;;4986008;28;20030;-64
2021/06/05 06:05:59;;;;;;;28.27;21.10;;;;;;;;;;4968744;28;20061;-64
2021/06/05 06:08:25;;;;;;;26.52;19.15;;;;;;;;;;4994805;28;20026;-64
2021/06/05 06:10:52;;;;;;;30.02;19.65;;;;;;;;;;4986424;28;20061;-64
2021/06/05 06:13:18;;;;;;;31.05;21.92;;;;;;;;;;4987292;28;20076;-64
2021/06/05 06:15:44;;;;;;;30.42;20.08;;;;;;;;;;4988017;28;20109;-64
2021/06/05 06:18:12;;;;;;;28.83;19.88;;;;;;;;;;4988522;28;20084;-63
2021/06/05 06:20:42;;;;;;;25.23;17.92;;;;;;;;;;4992601;28;20352;-63
2021/06/05 06:23:08;;;;;;;27.17;20.05;;;;;;;;;;4985999;28;20097;-64
2021/06/05 06:25:39;;;;;;;25.58;19.70;;;;;;;;;;4987833;28;20394;-64
2021/06/05 06:28:06;;;;;;;33.92;19.38;;;;;;;;;;4991363;28;20129;-64
2021/06/05 06:30:34;;;;;;;30.70;20.80;;;;;;;;;;4987436;28;20030;-64
2021/06/05 06:33:01;;;;;;;29.63;21.30;;;;;;;;;;4979580;28;20056;-64
2021/06/05 06:35:28;;;;;;;34.65;22.08;;;;;;;;;;4987822;28;20481;-64
2021/06/05 06:37:55;;;;;;;39.13;23.65;;;;;;;;;;4987289;28;20122;-64
2021/06/05 06:40:23;;;;;;;36.85;22.42;;;;;;;;;;4988486;28;20085;-64
2021/06/05 06:42:49;;;;;;;35.65;23.63;;;;;;;;;;4986029;28;20108;-64
2021/06/05 06:45:15;;;;;;;37.10;23.98;;;;;;;;;;4986692;28;20468;-65
2021/06/05 06:47:42;;;;;;;36.83;22.00;;;;;;;;;;4988052;28;20034;-64
2021/06/05 06:50:08;;;;;;;39.90;23.55;;;;;;;;;;4979633;28;20080;-64
2021/06/05 06:52:34;;;;;;;39.33;23.83;;;;;;;;;;4986165;28;20030;-64
2021/06/05 06:55:01;;;;;;;37.42;24.00;;;;;;;;;;4993890;28;20076;-64
2021/06/05 06:57:27;;;;;;;34.25;22.85;;;;;;;;;;4988432;28;20030;-63
2021/06/05 06:59:53;;;;;;;34.67;23.98;;;;;;;;;;4987940;28;20061;-64
2021/06/05 07:02:19;;;;;;;41.30;25.15;;;;;;;;;;4987291;28;20428;-64
2021/06/05 07:04:45;;;;;;;51.42;27.08;;;;;;;;;;4993311;28;20109;-64
2021/06/05 07:07:12;;;;;;;50.15;27.75;;;;;;;;;;4989429;28;20034;-64
2021/06/05 07:09:39;;;;;;;51.72;28.35;;;;;;;;;;4986893;28;20030;-64
2021/06/05 07:12:05;;;;;;;45.75;28.08;;;;;;;;;;4987993;28;20027;-64
2021/06/05 07:14:31;;;;;;;50.85;27.67;;;;;;;;;;4993123;28;20030;-64
2021/06/05 07:16:59;;;;;;;49.78;28.75;;;;;;;;;;5005257;28;20493;-64
2021/06/05 07:19:25;;;;;;;49.15;29.75;;;;;;;;;;4988147;28;20026;-64
2021/06/05 07:21:52;;;;;;;59.33;28.70;;;;;;;;;;4986122;28;20034;-63
2021/06/05 07:24:18;;;;;;;54.63;28.95;;;;;;;;;;4984521;28;20026;-64
2021/06/05 07:26:44;;;;;;;42.67;26.38;;;;;;;;;;4989414;28;20038;-63
2021/06/05 07:29:11;;;;;;;45.28;28.23;;;;;;;;;;4987231;28;20087;-64
2021/06/05 07:31:51;;;;;;;51.53;28.58;;;;;;;;;;4987430;28;20554;-64
2021/06/05 07:34:21;;;;;;;44.05;25.70;;;;;;;;;;4976052;28;20117;-64
2021/06/05 07:36:49;;;;;;;45.40;25.35;;;;;;;;;;4986260;28;20028;-65
2021/06/05 07:39:17;;;;;;;39.30;24.58;;;;;;;;;;4990302;28;20030;-64
2021/06/05 07:41:43;;;;;;;47.92;25.35;;;;;;;;;;4989267;28;20041;-64
2021/06/05 07:44:10;;;;;;;43.92;25.13;;;;;;;;;;4990916;28;20113;-64
2021/06/05 07:46:43;;;;;;;40.50;24.23;;;;;;;;;;4986853;28;20034;-64
2021/06/05 07:49:09;;;;;;;31.17;22.23;;;;;;;;;;4986582;28;20023;-64
2021/06/05 07:51:35;;;;;;;36.13;23.35;;;;;;;;;;4990482;28;20035;-64
2021/06/05 07:54:01;;;;;;;43.25;24.50;;;;;;;;;;4987966;28;20030;-64
2021/06/05 07:56:27;;;;;;;44.45;26.42;;;;;;;;;;4990207;28;20034;-64
2021/06/05 07:58:53;;;;;;;48.92;26.17;;;;;;;;;;4980584;28;20042;-64
2021/06/05 08:01:22;;;;;;;47.05;26.92;;;;;;;;;;4990777;28;20065;-64
2021/06/05 08:03:48;;;;;;;53.58;30.60;;;;;;;;;;4989735;28;20113;-64
2021/06/05 08:06:14;;;;;;;45.60;26.02;;;;;;;;;;4992745;28;20022;-64
2021/06/05 08:08:40;;;;;;;47.72;28.13;;;;;;;;;;4990015;28;20034;-65
2021/06/05 08:11:06;;;;;;;47.42;27.95;;;;;;;;;;4989131;28;20037;-64
2021/06/05 08:13:33;;;;;;;52.53;30.05;;;;;;;;;;4997850;28;20026;-65
2021/06/05 08:15:59;;;;;;;47.58;30.08;;;;;;;;;;4985450;28;20101;-64
2021/06/05 08:18:25;;;;;;;52.35;32.22;;;;;;;;;;4988483;28;20536;-64
2021/06/05 08:20:56;;;;;;;64.75;34.55;;;;;;;;;;4992187;28;20413;-65
2021/06/05 08:23:23;;;;;;;60.00;29.35;;;;;;;;;;4986836;28;20026;-64
2021/06/05 08:25:49;;;;;;;69.00;34.72;;;;;;;;;;4997296;28;20152;-64
2021/06/05 08:28:16;;;;;;;76.13;36.58;;;;;;;;;;4996391;28;20024;-63
2021/06/05 08:30:44;;;;;;;74.80;37.47;;;;;;;;;;4988872;28;20112;-64
2021/06/05 08:33:11;;;;;;;75.53;39.60;;;;;;;;;;4980478;28;20030;-64
2021/06/05 08:35:38;;;;;;;70.38;35.13;;;;;;;;;;4988858;28;20516;-65
2021/06/05 08:38:04;;;;;;;75.63;35.72;;;;;;;;;;4985964;28;20026;-66
2021/06/05 08:40:45;;;;;;;67.53;33.20;;;;;;;;;;4983793;28;20026;-64
2021/06/05 08:43:12;;;;;;;61.38;32.20;;;;;;;;;;4983256;28;20109;-65
2021/06/05 08:45:40;;;;;;;74.50;33.75;;;;;;;;;;4988442;28;20034;-65
2021/06/05 08:48:10;;;;;;;79.95;37.38;;;;;;;;;;4988990;28;20042;-65
2021/06/05 08:50:36;;;;;;;73.53;35.13;;;;;;;;;;4996972;28;20035;-64
2021/06/05 08:53:05;;;;;;;66.40;34.33;;;;;;;;;;4989242;28;20045;-65
2021/06/05 08:55:40;;;;;;;79.63;33.67;;;;;;;;;;4988535;28;20497;-64
2021/06/05 08:58:28;;;;;;;74.93;34.45;;;;;;;;;;4991017;28;20022;-65
2021/06/05 09:00:56;;;;;;;61.60;32.58;;;;;;;;;;4988523;28;20460;-64
2021/06/05 09:03:23;;;;;;;52.72;29.83;;;;;;;;;;5020377;28;20037;-64
2021/06/05 09:05:57;;;;;;;54.92;31.27;;;;;;;;;;4999132;28;20038;-64
2021/06/05 09:08:24;;;;;;;56.20;33.90;;;;;;;;;;4986788;28;20027;-65
2021/06/05 09:10:53;;;;;;;49.97;30.58;;;;;;;;;;4984917;28;20033;-64
2021/06/05 09:13:19;;;;;;;53.17;31.30;;;;;;;;;;4983957;28;20030;-64
2021/06/05 09:15:45;;;;;;;51.10;30.23;;;;;;;;;;4991553;28;20022;-64
2021/06/05 09:18:12;;;;;;;50.08;29.70;;;;;;;;;;4989343;28;20029;-65
2021/06/05 09:20:38;;;;;;;51.75;31.55;;;;;;;;;;4982946;28;20034;-65
2021/06/05 09:23:23;;;;;;;47.90;29.75;;;;;;;;;;4985094;28;20512;-64
2021/06/05 09:25:50;;;;;;;45.78;29.27;;;;;;;;;;4989086;28;20105;-65
2021/06/05 09:28:16;;;;;;;52.08;30.88;;;;;;;;;;4987426;28;20095;-65
2021/06/05 09:30:43;;;;;;;52.95;32.72;;;;;;;;;;4987695;28;20030;-64
2021/06/05 09:33:14;;;;;;;63.03;34.92;;;;;;;;;;4982199;28;20034;-64
2021/06/05 09:35:44;;;;;;;71.78;34.45;;;;;;;;;;4983333;28;20046;-64
2021/06/05 09:38:17;;;;;;;62.97;33.90;;;;;;;;;;4983192;28;20464;-64
2021/06/05 09:40:56;;;;;;;68.15;36.05;;;;;;;;;;4976998;28;20138;-65
2021/06/05 09:43:25;;;;;;;66.32;36.17;;;;;;;;;;4985474;28;20026;-64
2021/06/05 09:46:09;;;;;;;65.07;32.20;;;;;;;;;;4984862;28;20026;-64
2021/06/05 09:48:43;;;;;;;57.30;30.77;;;;;;;;;;4977882;28;20083;-65
2021/06/05 09:51:24;;;;;;;52.17;28.20;;;;;;;;;;4987546;28;20026;-65
2021/06/05 09:53:59;;;;;;;53.38;29.10;;;;;;;;;;4983763;28;20053;-64
2021/06/05 09:56:30;;;;;;;49.67;27.50;;;;;;;;;;4981997;28;20038;-64
2021/06/05 09:59:32;;;;;;;69.10;29.05;;;;;;;;;;4986689;28;20058;-64
2021/06/05 10:02:05;;;;;;;54.47;28.48;;;;;;;;;;4955226;28;20050;-64
2021/06/05 10:04:33;;;;;;;63.75;30.88;;;;;;;;;;4986320;28;20034;-64
2021/06/05 10:07:00;;;;;;;54.28;28.42;;;;;;;;;;4979484;28;20034;-64
2021/06/05 10:09:27;;;;;;;60.35;30.58;;;;;;;;;;4979442;28;20485;-64
2021/06/05 10:11:59;;;;;;;56.95;30.67;;;;;;;;;;4980807;28;20049;-64
2021/06/05 10:14:34;;;;;;;55.38;27.20;;;;;;;;;;5062037;28;20026;-65
2021/06/05 10:17:06;;;;;;;66.13;28.00;;;;;;;;;;4983524;28;20027;-64
2021/06/05 10:19:40;;;;;;;59.80;29.02;;;;;;;;;;4980834;28;20516;-64
2021/06/05 10:22:08;;;;;;;54.25;26.38;;;;;;;;;;4979911;28;20518;-64
2021/06/05 10:24:37;;;;;;;48.88;26.25;;;;;;;;;;4988870;28;20015;-64
2021/06/05 10:27:11;;;;;;;54.95;24.40;;;;;;;;;;4981525;28;20149;-64
2021/06/05 10:29:51;;;;;;;50.00;25.55;;;;;;;;;;4980929;28;20035;-64
2021/06/05 10:32:19;;;;;;;57.40;27.17;;;;;;;;;;4976399;28;20083;-64
2021/06/05 10:34:51;;;;;;;53.67;25.83;;;;;;;;;;4979452;28;20107;-64
2021/06/05 10:37:19;;;;;;;59.75;26.50;;;;;;;;;;4980088;28;20607;-64
2021/06/05 10:39:46;;;;;;;51.65;26.63;;;;;;;;;;4978568;28;20037;-63
2021/06/05 10:42:30;;;;;;;48.63;27.75;;;;;;;;;;4975521;28;20031;-65
2021/06/05 10:44:57;;;;;;;59.00;25.65;;;;;;;;;;4981206;28;20070;-65
2021/06/05 10:47:26;;;;;;;52.33;26.05;;;;;;;;;;4984827;28;20574;-64
2021/06/05 10:50:14;;;;;;;53.55;27.33;;;;;;;;;;4983497;28;20267;-64
2021/06/05 10:52:40;;;;;;;52.33;23.52;;;;;;;;;;4978400;28;20324;-64
2021/06/05 10:55:18;;;;;;;53.65;24.08;;;;;;;;;;4980754;28;20503;-64
2021/06/05 10:57:48;;;;;;;50.97;24.48;;;;;;;;;;4980270;28;20045;-64
2021/06/05 11:00:33;;;;;;;52.10;24.70;;;;;;;;;;4979990;28;20057;-64
2021/06/05 11:02:59;;;;;;;48.60;22.05;;;;;;;;;;4976012;28;20049;-64
2021/06/05 11:05:32;;;;;;;48.35;23.35;;;;;;;;;;4981218;28;20087;-63
2021/06/05 11:08:07;;;;;;;50.53;21.42;;;;;;;;;;4979264;28;20026;-64
2021/06/05 11:10:50;;;;;;;51.20;19.67;;;;;;;;;;4980586;28;20030;-63
2021/06/05 11:13:37;;;;;;;43.50;20.77;;;;;;;;;;4987814;28;20026;-64
2021/06/05 11:16:04;;;;;;;39.88;19.10;;;;;;;;;;4985077;28;20539;-65
2021/06/05 11:18:30;;;;;;;44.80;22.40;;;;;;;;;;4987177;28;20025;-65
2021/06/05 11:20:58;;;;;;;38.28;20.40;;;;;;;;;;4981885;28;20018;-65
2021/06/05 11:23:25;;;;;;;40.38;19.13;;;;;;;;;;4982101;28;20065;-65
2021/06/05 11:25:52;;;;;;;34.95;18.85;;;;;;;;;;4982191;28;20121;-65
2021/06/05 11:28:27;;;;;;;35.17;17.33;;;;;;;;;;4979297;28;20516;-64
2021/06/05 11:30:54;;;;;;;36.42;17.70;;;;;;;;;;5002971;28;20033;-64
2021/06/05 11:33:39;;;;;;;38.33;16.98;;;;;;;;;;4980855;28;20035;-65
2021/06/05 11:36:25;;;;;;;34.22;18.05;;;;;;;;;;4981638;28;20431;-66
2021/06/05 11:38:51;;;;;;;33.38;16.75;;;;;;;;;;4981721;28;20126;-64
2021/06/05 11:41:40;;;;;;;35.13;16.95;;;;;;;;;;4981651;28;20018;-65
2021/06/05 11:44:23;;;;;;;34.60;15.43;;;;;;;;;;4988997;28;20605;-64
2021/06/05 11:46:51;;;;;;;31.38;17.00;;;;;;;;;;4979298;28;20037;-64
2021/06/05 11:49:36;;;;;;;40.90;17.02;;;;;;;;;;4984706;28;20642;-64
2021/06/05 11:52:20;;;;;;;31.17;15.35;;;;;;;;;;4983073;28;20212;-64
2021/06/05 11:54:47;;;;;;;30.33;13.57;;;;;;;;;;4982106;28;20382;-65
2021/06/05 11:57:18;;;;;;;26.27;13.15;;;;;;;;;;4981967;28;20029;-65
2021/06/05 11:59:46;;;;;;;29.42;13.13;;;;;;;;;;4983310;28;20054;-65
2021/06/05 12:02:27;;;;;;;30.58;13.88;;;;;;;;;;4983253;28;20095;-65
2021/06/05 12:05:13;;;;;;;28.23;13.45;;;;;;;;;;4982381;28;20454;-65
2021/06/05 12:07:42;;;;;;;32.20;13.70;;;;;;;;;;4980894;28;20034;-64
2021/06/05 12:10:10;;;;;;;29.35;13.02;;;;;;;;;;4985252;28;20038;-65
2021/06/05 12:12:38;;;;;;;29.17;13.60;;;;;;;;;;4986669;28;20121;-65
2021/06/05 12:15:10;;;;;;;26.55;12.45;;;;;;;;;;4984832;28;20023;-64
2021/06/05 12:17:43;;;;;;;25.77;12.73;;;;;;;;;;4984088;28;20576;-64
2021/06/05 12:20:12;;;;;;;28.67;12.63;;;;;;;;;;4990071;28;20027;-65
2021/06/05 12:22:38;;;;;;;19.80;10.32;;;;;;;;;;4984767;28;20303;-64
2021/06/05 12:25:07;;;;;;;30.77;12.82;;;;;;;;;;4982191;28;20031;-65
2021/06/05 12:27:38;;;;;;;23.98;12.25;;;;;;;;;;4978373;28;20088;-64
2021/06/05 12:30:13;;;;;;;26.15;12.52;;;;;;;;;;4986176;28;20088;-65
2021/06/05 12:32:40;;;;;;;27.20;11.75;;;;;;;;;;4983484;28;20521;-64
2021/06/05 12:35:39;;;;;;;37.10;12.75;;;;;;;;;;4983543;28;20042;-64
2021/06/05 12:38:06;;;;;;;30.20;11.60;;;;;;;;;;5017462;28;20528;-66
2021/06/05 12:40:41;;;;;;;28.33;11.07;;;;;;;;;;4981170;28;20021;-67
2021/06/05 12:43:09;;;;;;;24.15;11.13;;;;;;;;;;4982146;28;20057;-67
2021/06/05 12:45:37;;;;;;;23.60;11.52;;;;;;;;;;4983676;28;20509;-66
2021/06/05 12:48:04;;;;;;;24.70;10.75;;;;;;;;;;4981909;28;20022;-66
2021/06/05 12:50:33;;;;;;;27.83;10.27;;;;;;;;;;4982870;28;20034;-67
2021/06/05 12:53:01;;;;;;;23.20;11.70;;;;;;;;;;4979742;28;20041;-66
2021/06/05 12:55:30;;;;;;;23.05;11.82;;;;;;;;;;4983750;28;20104;-66
2021/06/05 12:58:08;;;;;;;26.25;10.80;;;;;;;;;;4993889;28;20132;-66
2021/06/05 13:00:40;;;;;;;26.52;11.55;;;;;;;;;;4987949;28;20038;-66
2021/06/05 13:03:09;;;;;;;23.63;11.02;;;;;;;;;;4982776;28;20126;-66
2021/06/05 13:05:37;;;;;;;29.92;11.48;;;;;;;;;;4982630;28;20053;-67
2021/06/05 13:08:20;;;;;;;25.45;10.90;;;;;;;;;;4981254;28;20022;-66
2021/06/05 13:10:50;;;;;;;26.10;11.43;;;;;;;;;;4983367;28;20032;-67
2021/06/05 13:13:21;;;;;;;24.63;10.27;;;;;;;;;;4983922;28;20034;-66
2021/06/05 13:15:48;;;;;;;22.93;10.53;;;;;;;;;;4980382;28;20076;-67
2021/06/05 13:18:26;;;;;;;21.60;10.73;;;;;;;;;;4978797;28;20532;-66
2021/06/05 13:20:59;;;;;;;23.08;11.20;;;;;;;;;;4986544;28;20041;-66
2021/06/05 13:23:36;;;;;;;24.15;11.30;;;;;;;;;;4976918;28;20492;-66
2021/06/05 13:26:34;;;;;;;26.20;11.30;;;;;;;;;;4978191;28;20035;-66
2021/06/05 13:29:19;;;;;;;17.65;9.25;;;;;;;;;;5011260;28;20587;-67
2021/06/05 13:31:48;;;;;;;23.52;8.20;;;;;;;;;;4981709;28;20030;-66
2021/06/05 13:34:26;;;;;;;24.67;10.15;;;;;;;;;;4984643;28;20030;-65
2021/06/05 13:37:23;;;;;;;23.38;8.70;;;;;;;;;;4981378;28;20018;-66
2021/06/05 13:39:51;;;;;;;24.98;9.68;;;;;;;;;;4984458;28;20053;-66
2021/06/05 13:42:18;;;;;;;25.90;10.95;;;;;;;;;;4981450;28;20058;-66
2021/06/05 13:44:44;;;;;;;27.73;9.95;;;;;;;;;;4982555;28;20018;-67
2021/06/05 13:47:11;;;;;;;27.75;11.65;;;;;;;;;;4988607;28;20055;-66
2021/06/05 13:49:37;;;;;;;27.50;10.32;;;;;;;;;;4985320;28;20049;-66
2021/06/05 13:52:11;;;;;;;29.10;10.35;;;;;;;;;;4983269;28;20038;-67
2021/06/05 13:54:37;;;;;;;21.73;10.63;;;;;;;;;;4981191;28;20099;-66
2021/06/05 13:57:04;;;;;;;23.25;10.68;;;;;;;;;;4979771;28;20054;-66
2021/06/05 13:59:30;;;;;;;28.67;10.73;;;;;;;;;;4983656;28;20057;-66
2021/06/05 14:01:56;;;;;;;24.70;10.25;;;;;;;;;;4986512;28;20508;-66
2021/06/05 14:04:22;;;;;;;24.85;9.93;;;;;;;;;;4981235;28;20055;-64
2021/06/05 14:06:48;;;;;;;25.58;10.45;;;;;;;;;;4989087;28;20038;-65
2021/06/05 14:09:14;;;;;;;26.77;10.73;;;;;;;;;;4978640;28;20107;-65
2021/06/05 14:11:40;;;;;;;22.48;9.63;;;;;;;;;;4981828;28;20046;-66
2021/06/05 14:14:08;;;;;;;27.35;9.68;;;;;;;;;;4981735;28;20103;-66
2021/06/05 14:16:34;;;;;;;23.77;9.40;;;;;;;;;;4977584;28;20120;-65
2021/06/05 14:19:00;;;;;;;23.27;7.97;;;;;;;;;;4979337;28;20019;-65
2021/06/05 14:21:26;;;;;;;26.08;7.78;;;;;;;;;;4981704;28;20042;-65
2021/06/05 14:23:52;;;;;;;26.98;7.97;;;;;;;;;;4980037;28;20030;-64
2021/06/05 14:26:18;;;;;;;22.48;7.18;;;;;;;;;;4983341;28;20022;-65
2021/06/05 14:28:45;;;;;;;20.85;6.65;;;;;;;;;;4979586;28;20017;-65
2021/06/05 14:31:12;;;;;;;18.50;8.07;;;;;;;;;;4980777;28;20025;-64